sensor_id;sensor_type;location;lat;lon;timestamp;P1;durP1;ratioP1;P2;durP2;ratioP2
9388;SDS011;4734;52.778;6.798;2023-12-07T00:01:18;4.97;;;3.83;;
9388;SDS011;4734;52.778;6.798;2023-12-07T00:04:05;3.87;;;3.47;;
9388;SDS011;4734;52.778;6.798;2023-12-07T00:06:51;3.30;;;3.00;;
9388;SDS011;4734;52.778;6.798;2023-12-07T00:09:36;3.97;;;3.13;;
9388;SDS011;4734;52.778;6.798;2023-12-07T00:12:22;3.40;;;3.10;;
9388;SDS011;4734;52.778;6.798;2023-12-07T00:15:08;5.63;;;3.50;;
9388;SDS011;4734;52.778;6.798;2023-12-07T00:17:53;4.53;;;3.53;;
9388;SDS011;4734;52.778;6.798;2023-12-07T00:20:40;4.43;;;3.53;;
9388;SDS011;4734;52.778;6.798;2023-12-07T00:23:26;4.10;;;3.70;;
9388;SDS011;4734;52.778;6.798;2023-12-07T00:26:11;5.23;;;3.30;;
9388;SDS011;4734;52.778;6.798;2023-12-07T00:28:57;3.77;;;3.07;;
9388;SDS011;4734;52.778;6.798;2023-12-07T00:31:43;4.10;;;3.57;;
9388;SDS011;4734;52.778;6.798;2023-12-07T00:34:28;3.43;;;3.00;;
9388;SDS011;4734;52.778;6.798;2023-12-07T00:37:15;4.07;;;3.27;;
9388;SDS011;4734;52.778;6.798;2023-12-07T00:40:01;4.30;;;3.23;;
9388;SDS011;4734;52.778;6.798;2023-12-07T00:42:47;3.70;;;3.27;;
9388;SDS011;4734;52.778;6.798;2023-12-07T00:45:33;3.83;;;3.43;;
9388;SDS011;4734;52.778;6.798;2023-12-07T00:48:18;4.53;;;3.67;;
9388;SDS011;4734;52.778;6.798;2023-12-07T00:51:04;4.10;;;3.50;;
9388;SDS011;4734;52.778;6.798;2023-12-07T00:53:51;4.63;;;4.00;;
9388;SDS011;4734;52.778;6.798;2023-12-07T00:56:37;3.50;;;3.20;;
9388;SDS011;4734;52.778;6.798;2023-12-07T00:59:23;4.00;;;3.60;;
9388;SDS011;4734;52.778;6.798;2023-12-07T01:02:08;5.87;;;3.37;;
9388;SDS011;4734;52.778;6.798;2023-12-07T01:04:54;4.63;;;3.63;;
9388;SDS011;4734;52.778;6.798;2023-12-07T01:07:40;4.30;;;3.50;;
9388;SDS011;4734;52.778;6.798;2023-12-07T01:10:27;5.60;;;3.60;;
9388;SDS011;4734;52.778;6.798;2023-12-07T01:13:12;5.27;;;3.97;;
9388;SDS011;4734;52.778;6.798;2023-12-07T01:15:57;4.23;;;3.60;;
9388;SDS011;4734;52.778;6.798;2023-12-07T01:18:43;4.70;;;4.17;;
9388;SDS011;4734;52.778;6.798;2023-12-07T01:21:29;4.40;;;3.40;;
9388;SDS011;4734;52.778;6.798;2023-12-07T01:24:14;4.20;;;3.60;;
9388;SDS011;4734;52.778;6.798;2023-12-07T01:27:01;6.83;;;3.80;;
9388;SDS011;4734;52.778;6.798;2023-12-07T01:29:47;4.20;;;3.73;;
9388;SDS011;4734;52.778;6.798;2023-12-07T01:32:33;5.17;;;4.20;;
9388;SDS011;4734;52.778;6.798;2023-12-07T01:35:19;4.17;;;3.40;;
9388;SDS011;4734;52.778;6.798;2023-12-07T01:38:05;4.27;;;3.87;;
9388;SDS011;4734;52.778;6.798;2023-12-07T01:40:50;3.83;;;3.53;;
9388;SDS011;4734;52.778;6.798;2023-12-07T01:43:37;3.90;;;3.50;;
9388;SDS011;4734;52.778;6.798;2023-12-07T01:46:29;4.40;;;4.00;;
9388;SDS011;4734;52.778;6.798;2023-12-07T01:49:14;4.70;;;4.20;;
9388;SDS011;4734;52.778;6.798;2023-12-07T01:52:00;6.03;;;4.30;;
9388;SDS011;4734;52.778;6.798;2023-12-07T01:54:46;6.03;;;4.63;;
9388;SDS011;4734;52.778;6.798;2023-12-07T01:57:32;4.37;;;3.97;;
9388;SDS011;4734;52.778;6.798;2023-12-07T02:00:19;6.43;;;4.30;;
9388;SDS011;4734;52.778;6.798;2023-12-07T02:03:05;5.63;;;4.37;;
9388;SDS011;4734;52.778;6.798;2023-12-07T02:05:51;6.03;;;4.77;;
9388;SDS011;4734;52.778;6.798;2023-12-07T02:08:36;5.80;;;4.33;;
9388;SDS011;4734;52.778;6.798;2023-12-07T02:11:24;5.20;;;4.37;;
9388;SDS011;4734;52.778;6.798;2023-12-07T02:14:11;6.03;;;5.13;;
9388;SDS011;4734;52.778;6.798;2023-12-07T02:17:00;5.90;;;4.30;;
9388;SDS011;4734;52.778;6.798;2023-12-07T02:19:55;6.63;;;4.97;;
9388;SDS011;4734;52.778;6.798;2023-12-07T02:22:45;5.43;;;4.43;;
9388;SDS011;4734;52.778;6.798;2023-12-07T02:25:35;10.60;;;5.13;;
9388;SDS011;4734;52.778;6.798;2023-12-07T02:28:26;5.93;;;4.87;;
9388;SDS011;4734;52.778;6.798;2023-12-07T02:31:12;5.77;;;4.97;;
9388;SDS011;4734;52.778;6.798;2023-12-07T02:33:57;5.73;;;4.73;;
9388;SDS011;4734;52.778;6.798;2023-12-07T02:36:43;5.03;;;4.53;;
9388;SDS011;4734;52.778;6.798;2023-12-07T02:39:30;6.17;;;5.30;;
9388;SDS011;4734;52.778;6.798;2023-12-07T02:42:16;5.50;;;5.00;;
9388;SDS011;4734;52.778;6.798;2023-12-07T02:45:04;5.97;;;5.20;;
9388;SDS011;4734;52.778;6.798;2023-12-07T02:47:50;5.67;;;5.07;;
9388;SDS011;4734;52.778;6.798;2023-12-07T02:50:36;6.10;;;4.97;;
9388;SDS011;4734;52.778;6.798;2023-12-07T02:53:21;6.53;;;5.10;;
9388;SDS011;4734;52.778;6.798;2023-12-07T02:56:07;7.27;;;4.83;;
9388;SDS011;4734;52.778;6.798;2023-12-07T02:58:53;5.80;;;5.20;;
9388;SDS011;4734;52.778;6.798;2023-12-07T03:01:40;6.13;;;5.30;;
9388;SDS011;4734;52.778;6.798;2023-12-07T03:04:25;8.40;;;5.50;;
9388;SDS011;4734;52.778;6.798;2023-12-07T03:07:11;6.40;;;5.17;;
9388;SDS011;4734;52.778;6.798;2023-12-07T03:09:56;5.50;;;4.87;;
9388;SDS011;4734;52.778;6.798;2023-12-07T03:12:42;5.80;;;5.20;;
9388;SDS011;4734;52.778;6.798;2023-12-07T03:15:27;5.63;;;4.83;;
9388;SDS011;4734;52.778;6.798;2023-12-07T03:18:14;6.43;;;4.90;;
9388;SDS011;4734;52.778;6.798;2023-12-07T03:21:01;6.50;;;5.20;;
9388;SDS011;4734;52.778;6.798;2023-12-07T03:23:47;9.33;;;5.67;;
9388;SDS011;4734;52.778;6.798;2023-12-07T03:26:33;6.67;;;5.30;;
9388;SDS011;4734;52.778;6.798;2023-12-07T03:29:19;6.27;;;4.80;;
9388;SDS011;4734;52.778;6.798;2023-12-07T03:32:04;6.87;;;5.17;;
9388;SDS011;4734;52.778;6.798;2023-12-07T03:34:52;5.87;;;4.63;;
9388;SDS011;4734;52.778;6.798;2023-12-07T03:37:38;6.33;;;5.20;;
9388;SDS011;4734;52.778;6.798;2023-12-07T03:40:23;5.27;;;4.73;;
9388;SDS011;4734;52.778;6.798;2023-12-07T03:43:09;6.13;;;5.10;;
9388;SDS011;4734;52.778;6.798;2023-12-07T03:45:54;8.23;;;4.40;;
9388;SDS011;4734;52.778;6.798;2023-12-07T03:48:40;5.37;;;4.87;;
9388;SDS011;4734;52.778;6.798;2023-12-07T03:51:27;7.80;;;5.37;;
9388;SDS011;4734;52.778;6.798;2023-12-07T03:54:13;5.10;;;4.20;;
9388;SDS011;4734;52.778;6.798;2023-12-07T03:56:58;7.13;;;5.20;;
9388;SDS011;4734;52.778;6.798;2023-12-07T03:59:44;6.67;;;5.20;;
9388;SDS011;4734;52.778;6.798;2023-12-07T04:02:30;6.47;;;5.53;;
9388;SDS011;4734;52.778;6.798;2023-12-07T04:05:18;5.57;;;4.87;;
9388;SDS011;4734;52.778;6.798;2023-12-07T04:08:05;5.37;;;4.47;;
9388;SDS011;4734;52.778;6.798;2023-12-07T04:10:50;6.30;;;4.77;;
9388;SDS011;4734;52.778;6.798;2023-12-07T04:13:36;6.37;;;5.07;;
9388;SDS011;4734;52.778;6.798;2023-12-07T04:16:21;7.03;;;5.20;;
9388;SDS011;4734;52.778;6.798;2023-12-07T04:19:07;6.97;;;4.47;;
9388;SDS011;4734;52.778;6.798;2023-12-07T04:21:52;8.57;;;5.70;;
9388;SDS011;4734;52.778;6.798;2023-12-07T04:24:40;6.93;;;5.00;;
9388;SDS011;4734;52.778;6.798;2023-12-07T04:27:25;6.13;;;5.20;;
9388;SDS011;4734;52.778;6.798;2023-12-07T04:30:11;5.67;;;4.93;;
9388;SDS011;4734;52.778;6.798;2023-12-07T04:32:57;7.63;;;5.93;;
9388;SDS011;4734;52.778;6.798;2023-12-07T04:35:43;6.37;;;5.37;;
9388;SDS011;4734;52.778;6.798;2023-12-07T04:38:28;7.13;;;5.93;;
9388;SDS011;4734;52.778;6.798;2023-12-07T04:41:15;6.87;;;5.77;;
9388;SDS011;4734;52.778;6.798;2023-12-07T04:44:01;7.60;;;5.57;;
9388;SDS011;4734;52.778;6.798;2023-12-07T04:46:46;7.73;;;6.03;;
9388;SDS011;4734;52.778;6.798;2023-12-07T04:49:32;9.77;;;5.87;;
9388;SDS011;4734;52.778;6.798;2023-12-07T04:52:17;7.30;;;6.00;;
9388;SDS011;4734;52.778;6.798;2023-12-07T04:55:04;9.00;;;5.87;;
9388;SDS011;4734;52.778;6.798;2023-12-07T04:57:52;6.60;;;5.47;;
9388;SDS011;4734;52.778;6.798;2023-12-07T05:00:37;10.20;;;6.37;;
9388;SDS011;4734;52.778;6.798;2023-12-07T05:03:23;7.47;;;6.67;;
9388;SDS011;4734;52.778;6.798;2023-12-07T05:06:08;9.97;;;6.93;;
9388;SDS011;4734;52.778;6.798;2023-12-07T05:08:55;9.00;;;6.47;;
9388;SDS011;4734;52.778;6.798;2023-12-07T05:11:41;8.47;;;6.40;;
9388;SDS011;4734;52.778;6.798;2023-12-07T05:14:30;8.17;;;6.33;;
9388;SDS011;4734;52.778;6.798;2023-12-07T05:17:15;9.57;;;7.07;;
9388;SDS011;4734;52.778;6.798;2023-12-07T05:20:01;9.50;;;6.77;;
9388;SDS011;4734;52.778;6.798;2023-12-07T05:22:48;9.10;;;6.47;;
9388;SDS011;4734;52.778;6.798;2023-12-07T05:25:34;8.17;;;6.30;;
9388;SDS011;4734;52.778;6.798;2023-12-07T05:28:20;7.37;;;6.23;;
9388;SDS011;4734;52.778;6.798;2023-12-07T05:31:07;8.13;;;6.23;;
9388;SDS011;4734;52.778;6.798;2023-12-07T05:33:53;8.77;;;6.90;;
9388;SDS011;4734;52.778;6.798;2023-12-07T05:36:38;9.57;;;6.53;;
9388;SDS011;4734;52.778;6.798;2023-12-07T05:39:24;9.67;;;6.83;;
9388;SDS011;4734;52.778;6.798;2023-12-07T05:42:09;9.60;;;6.30;;
9388;SDS011;4734;52.778;6.798;2023-12-07T05:44:55;9.57;;;7.07;;
9388;SDS011;4734;52.778;6.798;2023-12-07T05:47:42;17.13;;;6.57;;
9388;SDS011;4734;52.778;6.798;2023-12-07T05:50:27;7.50;;;5.77;;
9388;SDS011;4734;52.778;6.798;2023-12-07T05:53:13;8.90;;;6.73;;
9388;SDS011;4734;52.778;6.798;2023-12-07T05:55:58;7.13;;;5.97;;
9388;SDS011;4734;52.778;6.798;2023-12-07T05:58:45;7.93;;;6.13;;
9388;SDS011;4734;52.778;6.798;2023-12-07T06:01:31;9.13;;;6.27;;
9388;SDS011;4734;52.778;6.798;2023-12-07T06:04:18;9.07;;;6.60;;
9388;SDS011;4734;52.778;6.798;2023-12-07T06:07:03;7.10;;;5.77;;
9388;SDS011;4734;52.778;6.798;2023-12-07T06:09:49;8.40;;;6.60;;
9388;SDS011;4734;52.778;6.798;2023-12-07T06:12:34;8.13;;;6.17;;
9388;SDS011;4734;52.778;6.798;2023-12-07T06:15:20;7.63;;;5.93;;
9388;SDS011;4734;52.778;6.798;2023-12-07T06:18:05;9.27;;;5.80;;
9388;SDS011;4734;52.778;6.798;2023-12-07T06:20:52;7.80;;;6.27;;
9388;SDS011;4734;52.778;6.798;2023-12-07T06:23:38;9.27;;;6.50;;
9388;SDS011;4734;52.778;6.798;2023-12-07T06:26:24;8.50;;;6.33;;
9388;SDS011;4734;52.778;6.798;2023-12-07T06:29:10;8.10;;;5.57;;
9388;SDS011;4734;52.778;6.798;2023-12-07T06:31:55;8.10;;;5.90;;
9388;SDS011;4734;52.778;6.798;2023-12-07T06:34:41;8.67;;;6.20;;
9388;SDS011;4734;52.778;6.798;2023-12-07T06:37:28;8.83;;;6.23;;
9388;SDS011;4734;52.778;6.798;2023-12-07T06:40:13;8.40;;;6.07;;
9388;SDS011;4734;52.778;6.798;2023-12-07T06:42:59;7.93;;;6.20;;
9388;SDS011;4734;52.778;6.798;2023-12-07T06:45:44;8.50;;;6.60;;
9388;SDS011;4734;52.778;6.798;2023-12-07T06:48:31;9.57;;;6.67;;
9388;SDS011;4734;52.778;6.798;2023-12-07T06:51:16;11.70;;;6.93;;
9388;SDS011;4734;52.778;6.798;2023-12-07T06:54:03;8.93;;;6.87;;
9388;SDS011;4734;52.778;6.798;2023-12-07T06:56:49;8.37;;;6.07;;
9388;SDS011;4734;52.778;6.798;2023-12-07T06:59:34;7.03;;;5.80;;
9388;SDS011;4734;52.778;6.798;2023-12-07T07:02:20;7.13;;;5.43;;
9388;SDS011;4734;52.778;6.798;2023-12-07T07:05:07;8.63;;;6.43;;
9388;SDS011;4734;52.778;6.798;2023-12-07T07:07:54;8.57;;;6.40;;
9388;SDS011;4734;52.778;6.798;2023-12-07T07:10:41;9.80;;;6.00;;
9388;SDS011;4734;52.778;6.798;2023-12-07T07:13:29;8.30;;;5.57;;
9388;SDS011;4734;52.778;6.798;2023-12-07T07:16:14;9.63;;;6.83;;
9388;SDS011;4734;52.778;6.798;2023-12-07T07:19:00;8.60;;;5.90;;
9388;SDS011;4734;52.778;6.798;2023-12-07T07:21:45;7.13;;;5.93;;
9388;SDS011;4734;52.778;6.798;2023-12-07T07:24:31;7.90;;;6.03;;
9388;SDS011;4734;52.778;6.798;2023-12-07T07:27:18;12.03;;;7.20;;
9388;SDS011;4734;52.778;6.798;2023-12-07T07:30:04;11.00;;;6.03;;
9388;SDS011;4734;52.778;6.798;2023-12-07T07:32:51;9.40;;;6.30;;
9388;SDS011;4734;52.778;6.798;2023-12-07T07:35:36;7.73;;;5.43;;
9388;SDS011;4734;52.778;6.798;2023-12-07T07:38:22;8.03;;;6.23;;
9388;SDS011;4734;52.778;6.798;2023-12-07T07:41:08;10.53;;;7.80;;
9388;SDS011;4734;52.778;6.798;2023-12-07T07:43:55;7.60;;;6.00;;
9388;SDS011;4734;52.778;6.798;2023-12-07T07:46:40;4.77;;;4.23;;
9388;SDS011;4734;52.778;6.798;2023-12-07T07:49:26;6.67;;;5.67;;
9388;SDS011;4734;52.778;6.798;2023-12-07T07:52:12;8.10;;;6.40;;
9388;SDS011;4734;52.778;6.798;2023-12-07T07:54:58;9.93;;;6.83;;
9388;SDS011;4734;52.778;6.798;2023-12-07T07:57:43;8.60;;;6.47;;
9388;SDS011;4734;52.778;6.798;2023-12-07T08:00:30;8.00;;;6.20;;
9388;SDS011;4734;52.778;6.798;2023-12-07T08:03:16;9.60;;;7.17;;
9388;SDS011;4734;52.778;6.798;2023-12-07T08:06:02;9.67;;;6.57;;
9388;SDS011;4734;52.778;6.798;2023-12-07T08:08:48;8.70;;;6.30;;
9388;SDS011;4734;52.778;6.798;2023-12-07T08:11:34;9.73;;;7.37;;
9388;SDS011;4734;52.778;6.798;2023-12-07T08:14:20;6.60;;;5.87;;
9388;SDS011;4734;52.778;6.798;2023-12-07T08:17:07;8.57;;;7.13;;
9388;SDS011;4734;52.778;6.798;2023-12-07T08:19:53;10.13;;;7.53;;
9388;SDS011;4734;52.778;6.798;2023-12-07T08:22:38;9.93;;;7.27;;
9388;SDS011;4734;52.778;6.798;2023-12-07T08:25:25;11.10;;;7.40;;
9388;SDS011;4734;52.778;6.798;2023-12-07T08:28:10;8.60;;;7.43;;
9388;SDS011;4734;52.778;6.798;2023-12-07T08:30:56;10.17;;;7.87;;
9388;SDS011;4734;52.778;6.798;2023-12-07T08:33:43;9.00;;;6.47;;
9388;SDS011;4734;52.778;6.798;2023-12-07T08:36:28;11.80;;;7.73;;
9388;SDS011;4734;52.778;6.798;2023-12-07T08:39:14;7.60;;;6.43;;
9388;SDS011;4734;52.778;6.798;2023-12-07T08:42:00;9.30;;;7.03;;
9388;SDS011;4734;52.778;6.798;2023-12-07T08:44:45;9.73;;;7.70;;
9388;SDS011;4734;52.778;6.798;2023-12-07T08:47:31;10.87;;;8.27;;
9388;SDS011;4734;52.778;6.798;2023-12-07T08:50:18;12.90;;;8.03;;
9388;SDS011;4734;52.778;6.798;2023-12-07T08:53:04;10.83;;;8.23;;
9388;SDS011;4734;52.778;6.798;2023-12-07T08:55:49;14.33;;;9.00;;
9388;SDS011;4734;52.778;6.798;2023-12-07T08:58:35;11.77;;;8.77;;
9388;SDS011;4734;52.778;6.798;2023-12-07T09:01:20;13.70;;;8.13;;
9388;SDS011;4734;52.778;6.798;2023-12-07T09:04:06;13.93;;;8.37;;
9388;SDS011;4734;52.778;6.798;2023-12-07T09:06:53;13.67;;;8.80;;
9388;SDS011;4734;52.778;6.798;2023-12-07T09:09:38;11.40;;;7.03;;
9388;SDS011;4734;52.778;6.798;2023-12-07T09:12:24;21.83;;;10.27;;
9388;SDS011;4734;52.778;6.798;2023-12-07T09:15:09;24.63;;;7.73;;
9388;SDS011;4734;52.778;6.798;2023-12-07T09:17:55;48.53;;;9.83;;
9388;SDS011;4734;52.778;6.798;2023-12-07T09:20:41;23.30;;;8.83;;
9388;SDS011;4734;52.778;6.798;2023-12-07T09:23:31;17.10;;;7.97;;
9388;SDS011;4734;52.778;6.798;2023-12-07T09:26:16;24.73;;;9.20;;
9388;SDS011;4734;52.778;6.798;2023-12-07T09:29:02;12.07;;;7.67;;
9388;SDS011;4734;52.778;6.798;2023-12-07T09:31:48;24.70;;;8.77;;
9388;SDS011;4734;52.778;6.798;2023-12-07T09:34:33;24.23;;;7.63;;
9388;SDS011;4734;52.778;6.798;2023-12-07T09:37:20;21.87;;;9.00;;
9388;SDS011;4734;52.778;6.798;2023-12-07T09:40:07;23.70;;;8.43;;
9388;SDS011;4734;52.778;6.798;2023-12-07T09:42:59;14.10;;;7.70;;
9388;SDS011;4734;52.778;6.798;2023-12-07T09:45:44;19.17;;;6.63;;
9388;SDS011;4734;52.778;6.798;2023-12-07T09:48:30;12.63;;;7.50;;
9388;SDS011;4734;52.778;6.798;2023-12-07T09:51:16;9.47;;;7.60;;
9388;SDS011;4734;52.778;6.798;2023-12-07T09:54:02;10.23;;;7.30;;
9388;SDS011;4734;52.778;6.798;2023-12-07T09:56:50;17.63;;;6.93;;
9388;SDS011;4734;52.778;6.798;2023-12-07T09:59:39;10.43;;;6.27;;
9388;SDS011;4734;52.778;6.798;2023-12-07T10:02:25;18.40;;;6.60;;
9388;SDS011;4734;52.778;6.798;2023-12-07T10:05:11;8.67;;;5.80;;
9388;SDS011;4734;52.778;6.798;2023-12-07T10:07:57;9.30;;;6.63;;
9388;SDS011;4734;52.778;6.798;2023-12-07T10:10:43;16.60;;;7.77;;
9388;SDS011;4734;52.778;6.798;2023-12-07T10:13:30;16.90;;;6.60;;
9388;SDS011;4734;52.778;6.798;2023-12-07T10:16:15;14.30;;;6.90;;
9388;SDS011;4734;52.778;6.798;2023-12-07T10:19:12;14.73;;;7.57;;
9388;SDS011;4734;52.778;6.798;2023-12-07T10:22:01;13.77;;;6.40;;
9388;SDS011;4734;52.778;6.798;2023-12-07T10:24:58;9.47;;;6.93;;
9388;SDS011;4734;52.778;6.798;2023-12-07T10:27:44;21.87;;;7.60;;
9388;SDS011;4734;52.778;6.798;2023-12-07T10:30:31;14.80;;;7.40;;
9388;SDS011;4734;52.778;6.798;2023-12-07T10:33:16;10.23;;;7.00;;
9388;SDS011;4734;52.778;6.798;2023-12-07T10:36:04;15.83;;;7.37;;
9388;SDS011;4734;52.778;6.798;2023-12-07T10:38:50;11.93;;;7.03;;
9388;SDS011;4734;52.778;6.798;2023-12-07T10:41:36;12.17;;;7.90;;
9388;SDS011;4734;52.778;6.798;2023-12-07T10:44:23;13.57;;;7.30;;
9388;SDS011;4734;52.778;6.798;2023-12-07T10:47:14;10.73;;;7.87;;
9388;SDS011;4734;52.778;6.798;2023-12-07T10:50:00;10.73;;;7.53;;
9388;SDS011;4734;52.778;6.798;2023-12-07T10:52:51;13.70;;;7.03;;
9388;SDS011;4734;52.778;6.798;2023-12-07T10:55:40;26.13;;;7.60;;
9388;SDS011;4734;52.778;6.798;2023-12-07T10:58:32;15.40;;;8.30;;
9388;SDS011;4734;52.778;6.798;2023-12-07T11:01:21;17.40;;;8.87;;
9388;SDS011;4734;52.778;6.798;2023-12-07T11:04:10;19.43;;;9.73;;
9388;SDS011;4734;52.778;6.798;2023-12-07T11:06:56;18.90;;;9.60;;
9388;SDS011;4734;52.778;6.798;2023-12-07T11:09:51;17.07;;;9.80;;
9388;SDS011;4734;52.778;6.798;2023-12-07T11:12:43;17.87;;;10.03;;
9388;SDS011;4734;52.778;6.798;2023-12-07T11:15:33;18.17;;;10.70;;
9388;SDS011;4734;52.778;6.798;2023-12-07T11:18:26;16.07;;;10.10;;
9388;SDS011;4734;52.778;6.798;2023-12-07T11:21:14;17.47;;;9.73;;
9388;SDS011;4734;52.778;6.798;2023-12-07T11:24:00;20.43;;;9.40;;
9388;SDS011;4734;52.778;6.798;2023-12-07T11:26:51;27.50;;;10.17;;
9388;SDS011;4734;52.778;6.798;2023-12-07T11:29:37;19.17;;;10.07;;
9388;SDS011;4734;52.778;6.798;2023-12-07T11:32:22;25.20;;;9.83;;
9388;SDS011;4734;52.778;6.798;2023-12-07T11:35:13;24.50;;;9.37;;
9388;SDS011;4734;52.778;6.798;2023-12-07T11:38:02;17.67;;;10.23;;
9388;SDS011;4734;52.778;6.798;2023-12-07T11:40:50;12.27;;;8.37;;
9388;SDS011;4734;52.778;6.798;2023-12-07T11:43:36;18.27;;;9.07;;
9388;SDS011;4734;52.778;6.798;2023-12-07T11:46:27;14.80;;;7.93;;
9388;SDS011;4734;52.778;6.798;2023-12-07T11:49:12;15.27;;;8.10;;
9388;SDS011;4734;52.778;6.798;2023-12-07T11:51:59;21.03;;;9.90;;
9388;SDS011;4734;52.778;6.798;2023-12-07T11:54:46;16.57;;;9.33;;
9388;SDS011;4734;52.778;6.798;2023-12-07T11:57:34;21.03;;;10.93;;
9388;SDS011;4734;52.778;6.798;2023-12-07T12:00:19;15.80;;;9.90;;
9388;SDS011;4734;52.778;6.798;2023-12-07T12:03:05;16.67;;;11.20;;
9388;SDS011;4734;52.778;6.798;2023-12-07T12:05:51;16.30;;;10.97;;
9388;SDS011;4734;52.778;6.798;2023-12-07T12:08:39;13.17;;;9.87;;
9388;SDS011;4734;52.778;6.798;2023-12-07T12:11:26;20.83;;;10.17;;
9388;SDS011;4734;52.778;6.798;2023-12-07T12:14:12;17.33;;;12.40;;
9388;SDS011;4734;52.778;6.798;2023-12-07T12:16:58;13.80;;;9.83;;
9388;SDS011;4734;52.778;6.798;2023-12-07T12:19:44;15.30;;;10.23;;
9388;SDS011;4734;52.778;6.798;2023-12-07T12:22:30;17.17;;;10.63;;
9388;SDS011;4734;52.778;6.798;2023-12-07T12:25:15;23.63;;;11.50;;
9388;SDS011;4734;52.778;6.798;2023-12-07T12:28:03;18.57;;;11.03;;
9388;SDS011;4734;52.778;6.798;2023-12-07T12:30:50;16.77;;;10.70;;
9388;SDS011;4734;52.778;6.798;2023-12-07T12:33:36;21.00;;;11.57;;
9388;SDS011;4734;52.778;6.798;2023-12-07T12:36:22;23.33;;;13.27;;
9388;SDS011;4734;52.778;6.798;2023-12-07T12:39:11;19.27;;;11.07;;
9388;SDS011;4734;52.778;6.798;2023-12-07T12:41:57;21.77;;;12.23;;
9388;SDS011;4734;52.778;6.798;2023-12-07T12:44:45;21.03;;;12.03;;
9388;SDS011;4734;52.778;6.798;2023-12-07T12:47:31;25.27;;;12.37;;
9388;SDS011;4734;52.778;6.798;2023-12-07T12:50:34;23.33;;;13.00;;
9388;SDS011;4734;52.778;6.798;2023-12-07T12:53:21;22.87;;;11.40;;
9388;SDS011;4734;52.778;6.798;2023-12-07T12:56:08;23.87;;;13.03;;
9388;SDS011;4734;52.778;6.798;2023-12-07T12:58:55;30.10;;;13.17;;
9388;SDS011;4734;52.778;6.798;2023-12-07T13:01:42;24.60;;;12.50;;
9388;SDS011;4734;52.778;6.798;2023-12-07T13:04:28;24.17;;;11.77;;
9388;SDS011;4734;52.778;6.798;2023-12-07T13:07:14;29.90;;;14.57;;
9388;SDS011;4734;52.778;6.798;2023-12-07T13:10:00;24.70;;;13.00;;
9388;SDS011;4734;52.778;6.798;2023-12-07T13:12:45;27.17;;;12.70;;
9388;SDS011;4734;52.778;6.798;2023-12-07T13:15:31;26.93;;;13.27;;
9388;SDS011;4734;52.778;6.798;2023-12-07T13:18:18;31.30;;;14.13;;
9388;SDS011;4734;52.778;6.798;2023-12-07T13:21:07;32.23;;;16.03;;
9388;SDS011;4734;52.778;6.798;2023-12-07T13:23:53;29.33;;;14.73;;
9388;SDS011;4734;52.778;6.798;2023-12-07T13:26:39;23.87;;;13.40;;
9388;SDS011;4734;52.778;6.798;2023-12-07T13:29:24;30.23;;;14.70;;
9388;SDS011;4734;52.778;6.798;2023-12-07T13:32:10;27.40;;;15.30;;
9388;SDS011;4734;52.778;6.798;2023-12-07T13:34:57;32.20;;;15.63;;
9388;SDS011;4734;52.778;6.798;2023-12-07T13:37:42;32.00;;;15.67;;
9388;SDS011;4734;52.778;6.798;2023-12-07T13:40:28;33.50;;;17.33;;
9388;SDS011;4734;52.778;6.798;2023-12-07T13:43:13;36.60;;;17.40;;
9388;SDS011;4734;52.778;6.798;2023-12-07T13:45:59;30.83;;;16.53;;
9388;SDS011;4734;52.778;6.798;2023-12-07T13:48:45;31.33;;;16.53;;
9388;SDS011;4734;52.778;6.798;2023-12-07T13:51:32;32.33;;;18.07;;
9388;SDS011;4734;52.778;6.798;2023-12-07T13:54:18;36.17;;;17.77;;
9388;SDS011;4734;52.778;6.798;2023-12-07T13:57:05;35.00;;;17.60;;
9388;SDS011;4734;52.778;6.798;2023-12-07T13:59:55;36.70;;;17.57;;
9388;SDS011;4734;52.778;6.798;2023-12-07T14:02:41;33.57;;;17.13;;
9388;SDS011;4734;52.778;6.798;2023-12-07T14:05:28;38.53;;;17.90;;
9388;SDS011;4734;52.778;6.798;2023-12-07T14:08:15;34.40;;;16.90;;
9388;SDS011;4734;52.778;6.798;2023-12-07T14:11:00;38.07;;;18.07;;
9388;SDS011;4734;52.778;6.798;2023-12-07T14:13:48;36.00;;;18.20;;
9388;SDS011;4734;52.778;6.798;2023-12-07T14:16:37;34.87;;;16.17;;
9388;SDS011;4734;52.778;6.798;2023-12-07T14:19:23;32.07;;;17.17;;
9388;SDS011;4734;52.778;6.798;2023-12-07T14:22:09;34.10;;;16.50;;
9388;SDS011;4734;52.778;6.798;2023-12-07T14:24:57;29.23;;;16.90;;
9388;SDS011;4734;52.778;6.798;2023-12-07T14:27:43;29.43;;;16.13;;
9388;SDS011;4734;52.778;6.798;2023-12-07T14:30:28;31.80;;;16.03;;
9388;SDS011;4734;52.778;6.798;2023-12-07T14:33:15;26.60;;;15.53;;
9388;SDS011;4734;52.778;6.798;2023-12-07T14:36:00;29.77;;;15.30;;
9388;SDS011;4734;52.778;6.798;2023-12-07T14:38:46;29.93;;;14.87;;
9388;SDS011;4734;52.778;6.798;2023-12-07T14:41:33;26.07;;;15.73;;
9388;SDS011;4734;52.778;6.798;2023-12-07T14:44:19;23.97;;;14.07;;
9388;SDS011;4734;52.778;6.798;2023-12-07T14:47:05;23.93;;;13.97;;
9388;SDS011;4734;52.778;6.798;2023-12-07T14:49:51;29.73;;;14.67;;
9388;SDS011;4734;52.778;6.798;2023-12-07T14:52:36;24.23;;;13.33;;
9388;SDS011;4734;52.778;6.798;2023-12-07T14:55:22;28.73;;;14.70;;
9388;SDS011;4734;52.778;6.798;2023-12-07T14:58:09;27.13;;;16.00;;
9388;SDS011;4734;52.778;6.798;2023-12-07T15:00:55;27.70;;;15.07;;
9388;SDS011;4734;52.778;6.798;2023-12-07T15:03:41;27.70;;;14.87;;
9388;SDS011;4734;52.778;6.798;2023-12-07T15:06:30;26.43;;;14.83;;
9388;SDS011;4734;52.778;6.798;2023-12-07T15:09:16;26.80;;;15.33;;
9388;SDS011;4734;52.778;6.798;2023-12-07T15:12:03;22.43;;;14.37;;
9388;SDS011;4734;52.778;6.798;2023-12-07T15:14:51;27.60;;;14.83;;
9388;SDS011;4734;52.778;6.798;2023-12-07T15:17:36;29.57;;;16.17;;
9388;SDS011;4734;52.778;6.798;2023-12-07T15:20:33;26.97;;;14.30;;
9388;SDS011;4734;52.778;6.798;2023-12-07T15:23:18;29.17;;;14.20;;
9388;SDS011;4734;52.778;6.798;2023-12-07T15:26:04;26.43;;;12.93;;
9388;SDS011;4734;52.778;6.798;2023-12-07T15:28:51;25.37;;;13.87;;
9388;SDS011;4734;52.778;6.798;2023-12-07T15:31:38;24.20;;;13.93;;
9388;SDS011;4734;52.778;6.798;2023-12-07T15:34:25;25.47;;;15.10;;
9388;SDS011;4734;52.778;6.798;2023-12-07T15:37:12;29.10;;;13.53;;
9388;SDS011;4734;52.778;6.798;2023-12-07T15:39:58;25.87;;;13.73;;
9388;SDS011;4734;52.778;6.798;2023-12-07T15:42:44;22.67;;;13.67;;
9388;SDS011;4734;52.778;6.798;2023-12-07T15:45:30;24.27;;;13.03;;
9388;SDS011;4734;52.778;6.798;2023-12-07T15:48:20;25.77;;;13.87;;
9388;SDS011;4734;52.778;6.798;2023-12-07T15:51:06;21.03;;;13.50;;
9388;SDS011;4734;52.778;6.798;2023-12-07T15:53:51;27.33;;;14.30;;
9388;SDS011;4734;52.778;6.798;2023-12-07T15:56:39;32.07;;;14.77;;
9388;SDS011;4734;52.778;6.798;2023-12-07T15:59:25;28.90;;;15.07;;
9388;SDS011;4734;52.778;6.798;2023-12-07T16:02:11;30.47;;;14.87;;
9388;SDS011;4734;52.778;6.798;2023-12-07T16:04:58;26.97;;;14.87;;
9388;SDS011;4734;52.778;6.798;2023-12-07T16:07:43;24.47;;;13.87;;
9388;SDS011;4734;52.778;6.798;2023-12-07T16:10:29;25.80;;;14.20;;
9388;SDS011;4734;52.778;6.798;2023-12-07T16:13:14;27.77;;;14.83;;
9388;SDS011;4734;52.778;6.798;2023-12-07T16:16:14;26.67;;;14.60;;
9388;SDS011;4734;52.778;6.798;2023-12-07T16:19:07;19.27;;;10.47;;
9388;SDS011;4734;52.778;6.798;2023-12-07T16:21:55;30.60;;;13.60;;
9388;SDS011;4734;52.778;6.798;2023-12-07T16:24:40;24.97;;;14.27;;
9388;SDS011;4734;52.778;6.798;2023-12-07T16:27:26;27.07;;;15.43;;
9388;SDS011;4734;52.778;6.798;2023-12-07T16:30:11;30.43;;;15.87;;
9388;SDS011;4734;52.778;6.798;2023-12-07T16:33:02;25.20;;;14.17;;
9388;SDS011;4734;52.778;6.798;2023-12-07T16:35:48;27.67;;;13.90;;
9388;SDS011;4734;52.778;6.798;2023-12-07T16:38:36;28.67;;;15.53;;
9388;SDS011;4734;52.778;6.798;2023-12-07T16:41:25;24.57;;;13.43;;
9388;SDS011;4734;52.778;6.798;2023-12-07T16:44:10;23.27;;;13.97;;
9388;SDS011;4734;52.778;6.798;2023-12-07T16:46:57;25.13;;;14.60;;
9388;SDS011;4734;52.778;6.798;2023-12-07T16:49:43;28.80;;;15.20;;
9388;SDS011;4734;52.778;6.798;2023-12-07T16:52:29;25.70;;;14.50;;
9388;SDS011;4734;52.778;6.798;2023-12-07T16:55:16;31.90;;;16.17;;
9388;SDS011;4734;52.778;6.798;2023-12-07T16:58:01;29.23;;;15.97;;
9388;SDS011;4734;52.778;6.798;2023-12-07T17:00:47;30.43;;;17.17;;
9388;SDS011;4734;52.778;6.798;2023-12-07T17:03:33;33.17;;;18.07;;